sensor_id;sensor_type;location;lat;lon;timestamp;P1;durP1;ratioP1;P2;durP2;ratioP2
20751;SDS011;10536;51.582;5.016;2022-08-04T00:00:05;5.20;;;3.88;;
20751;SDS011;10536;51.582;5.016;2022-08-04T00:05:10;5.03;;;4.25;;
20751;SDS011;10536;51.582;5.016;2022-08-04T00:10:19;6.28;;;3.85;;
20751;SDS011;10536;51.582;5.016;2022-08-04T00:15:21;8.73;;;3.88;;
20751;SDS011;10536;51.582;5.016;2022-08-04T00:20:23;10.63;;;3.65;;
20751;SDS011;10536;51.582;5.016;2022-08-04T00:25:28;12.25;;;5.07;;
20751;SDS011;10536;51.582;5.016;2022-08-04T00:30:28;7.47;;;4.70;;
20751;SDS011;10536;51.582;5.016;2022-08-04T00:35:29;11.15;;;4.35;;
20751;SDS011;10536;51.582;5.016;2022-08-04T00:40:35;8.98;;;4.38;;
20751;SDS011;10536;51.582;5.016;2022-08-04T00:46:18;12.68;;;4.40;;
20751;SDS011;10536;51.582;5.016;2022-08-04T01:07:14;7.50;;;4.07;;
20751;SDS011;10536;51.582;5.016;2022-08-04T01:33:02;7.18;;;6.53;;
20751;SDS011;10536;51.582;5.016;2022-08-04T01:38:06;11.07;;;7.10;;
20751;SDS011;10536;51.582;5.016;2022-08-04T01:43:29;11.73;;;7.43;;
20751;SDS011;10536;51.582;5.016;2022-08-04T01:48:31;10.85;;;7.45;;
20751;SDS011;10536;51.582;5.016;2022-08-04T01:53:35;10.30;;;7.07;;
20751;SDS011;10536;51.582;5.016;2022-08-04T01:58:37;13.83;;;7.00;;
20751;SDS011;10536;51.582;5.016;2022-08-04T02:03:39;9.35;;;7.63;;
20751;SDS011;10536;51.582;5.016;2022-08-04T02:24:29;12.25;;;6.68;;
20751;SDS011;10536;51.582;5.016;2022-08-04T02:29:38;14.15;;;7.38;;
20751;SDS011;10536;51.582;5.016;2022-08-04T02:34:53;9.73;;;7.47;;
20751;SDS011;10536;51.582;5.016;2022-08-04T02:40:00;10.10;;;7.90;;
20751;SDS011;10536;51.582;5.016;2022-08-04T02:45:03;9.40;;;6.90;;
20751;SDS011;10536;51.582;5.016;2022-08-04T02:50:06;14.33;;;7.57;;
20751;SDS011;10536;51.582;5.016;2022-08-04T02:55:07;11.40;;;7.82;;
20751;SDS011;10536;51.582;5.016;2022-08-04T03:00:12;11.00;;;7.05;;
20751;SDS011;10536;51.582;5.016;2022-08-04T03:05:27;12.52;;;7.45;;
20751;SDS011;10536;51.582;5.016;2022-08-04T03:10:48;9.55;;;7.05;;
20751;SDS011;10536;51.582;5.016;2022-08-04T03:48:33;9.55;;;6.43;;
20751;SDS011;10536;51.582;5.016;2022-08-04T03:53:42;12.93;;;6.05;;
20751;SDS011;10536;51.582;5.016;2022-08-04T04:20:18;9.10;;;6.75;;
20751;SDS011;10536;51.582;5.016;2022-08-04T04:31:10;13.38;;;7.43;;
20751;SDS011;10536;51.582;5.016;2022-08-04T04:36:36;13.32;;;7.88;;
20751;SDS011;10536;51.582;5.016;2022-08-04T04:52:08;12.27;;;6.35;;
20751;SDS011;10536;51.582;5.016;2022-08-04T04:57:17;13.98;;;6.80;;
20751;SDS011;10536;51.582;5.016;2022-08-04T05:13:10;15.20;;;6.70;;
20751;SDS011;10536;51.582;5.016;2022-08-04T05:18:27;12.88;;;6.95;;
20751;SDS011;10536;51.582;5.016;2022-08-04T05:23:32;7.93;;;5.50;;
20751;SDS011;10536;51.582;5.016;2022-08-04T05:28:44;8.82;;;6.00;;
20751;SDS011;10536;51.582;5.016;2022-08-04T05:38:59;12.25;;;6.35;;
20751;SDS011;10536;51.582;5.016;2022-08-04T05:44:01;10.38;;;5.85;;
20751;SDS011;10536;51.582;5.016;2022-08-04T05:49:03;8.35;;;5.80;;
20751;SDS011;10536;51.582;5.016;2022-08-04T05:54:04;7.38;;;5.43;;
20751;SDS011;10536;51.582;5.016;2022-08-04T05:59:06;6.95;;;4.97;;
20751;SDS011;10536;51.582;5.016;2022-08-04T06:04:09;11.68;;;5.10;;
20751;SDS011;10536;51.582;5.016;2022-08-04T06:09:11;13.05;;;4.78;;
20751;SDS011;10536;51.582;5.016;2022-08-04T06:14:12;12.13;;;4.90;;
20751;SDS011;10536;51.582;5.016;2022-08-04T06:19:14;7.15;;;4.68;;
20751;SDS011;10536;51.582;5.016;2022-08-04T06:24:18;9.48;;;4.68;;
20751;SDS011;10536;51.582;5.016;2022-08-04T06:29:21;9.70;;;4.65;;
20751;SDS011;10536;51.582;5.016;2022-08-04T06:34:29;8.88;;;4.68;;
20751;SDS011;10536;51.582;5.016;2022-08-04T06:39:33;14.10;;;5.00;;
20751;SDS011;10536;51.582;5.016;2022-08-04T06:44:35;15.05;;;3.90;;
20751;SDS011;10536;51.582;5.016;2022-08-04T06:49:37;19.63;;;4.43;;
20751;SDS011;10536;51.582;5.016;2022-08-04T06:54:38;10.75;;;4.20;;
20751;SDS011;10536;51.582;5.016;2022-08-04T06:59:42;12.63;;;4.60;;
20751;SDS011;10536;51.582;5.016;2022-08-04T07:04:44;11.90;;;4.38;;
20751;SDS011;10536;51.582;5.016;2022-08-04T07:09:46;11.80;;;4.28;;
20751;SDS011;10536;51.582;5.016;2022-08-04T07:14:48;11.52;;;3.97;;
20751;SDS011;10536;51.582;5.016;2022-08-04T07:19:49;9.90;;;3.65;;
20751;SDS011;10536;51.582;5.016;2022-08-04T07:24:55;10.02;;;3.10;;
20751;SDS011;10536;51.582;5.016;2022-08-04T07:29:56;3.83;;;2.55;;
20751;SDS011;10536;51.582;5.016;2022-08-04T07:34:57;6.50;;;3.47;;
20751;SDS011;10536;51.582;5.016;2022-08-04T07:39:59;8.43;;;3.60;;
20751;SDS011;10536;51.582;5.016;2022-08-04T07:45:00;5.55;;;3.58;;
20751;SDS011;10536;51.582;5.016;2022-08-04T07:50:01;5.95;;;3.17;;
20751;SDS011;10536;51.582;5.016;2022-08-04T07:55:02;10.85;;;3.38;;
20751;SDS011;10536;51.582;5.016;2022-08-04T08:00:03;10.13;;;3.22;;
20751;SDS011;10536;51.582;5.016;2022-08-04T08:05:05;16.90;;;3.58;;
20751;SDS011;10536;51.582;5.016;2022-08-04T08:10:12;9.70;;;3.22;;
20751;SDS011;10536;51.582;5.016;2022-08-04T08:15:13;9.60;;;2.83;;
20751;SDS011;10536;51.582;5.016;2022-08-04T08:20:14;10.63;;;2.55;;
20751;SDS011;10536;51.582;5.016;2022-08-04T08:25:15;5.20;;;2.88;;
20751;SDS011;10536;51.582;5.016;2022-08-04T08:30:15;7.88;;;2.53;;
20751;SDS011;10536;51.582;5.016;2022-08-04T08:35:16;7.07;;;2.63;;
20751;SDS011;10536;51.582;5.016;2022-08-04T08:56:27;7.60;;;2.75;;
20751;SDS011;10536;51.582;5.016;2022-08-04T09:07:01;5.28;;;2.80;;
20751;SDS011;10536;51.582;5.016;2022-08-04T09:12:14;7.32;;;2.90;;
20751;SDS011;10536;51.582;5.016;2022-08-04T09:17:29;11.07;;;3.22;;
20751;SDS011;10536;51.582;5.016;2022-08-04T09:27:45;6.10;;;2.33;;
20751;SDS011;10536;51.582;5.016;2022-08-04T09:43:35;9.47;;;2.60;;
20751;SDS011;10536;51.582;5.016;2022-08-04T09:48:54;9.10;;;2.80;;
20751;SDS011;10536;51.582;5.016;2022-08-04T09:54:01;8.23;;;2.70;;
20751;SDS011;10536;51.582;5.016;2022-08-04T10:04:58;6.20;;;2.80;;
20751;SDS011;10536;51.582;5.016;2022-08-04T10:10:19;6.00;;;2.83;;
20751;SDS011;10536;51.582;5.016;2022-08-04T10:15:35;5.88;;;3.53;;
20751;SDS011;10536;51.582;5.016;2022-08-04T10:21:07;5.40;;;3.17;;
20751;SDS011;10536;51.582;5.016;2022-08-04T10:37:20;8.65;;;3.65;;
20751;SDS011;10536;51.582;5.016;2022-08-04T10:42:24;6.85;;;3.55;;
20751;SDS011;10536;51.582;5.016;2022-08-04T10:47:31;7.38;;;3.58;;
20751;SDS011;10536;51.582;5.016;2022-08-04T10:52:47;7.50;;;3.28;;
20751;SDS011;10536;51.582;5.016;2022-08-04T10:58:06;5.22;;;3.30;;
20751;SDS011;10536;51.582;5.016;2022-08-04T11:03:18;7.85;;;3.10;;
20751;SDS011;10536;51.582;5.016;2022-08-04T11:08:31;7.00;;;2.42;;
20751;SDS011;10536;51.582;5.016;2022-08-04T11:19:07;11.43;;;3.17;;
20751;SDS011;10536;51.582;5.016;2022-08-04T11:24:29;6.20;;;2.92;;
20751;SDS011;10536;51.582;5.016;2022-08-04T11:30:01;5.20;;;3.00;;
20751;SDS011;10536;51.582;5.016;2022-08-04T11:35:05;7.75;;;2.58;;
20751;SDS011;10536;51.582;5.016;2022-08-04T11:45:29;5.90;;;2.70;;
20751;SDS011;10536;51.582;5.016;2022-08-04T11:50:42;7.10;;;2.75;;
20751;SDS011;10536;51.582;5.016;2022-08-04T11:55:45;5.65;;;2.80;;
20751;SDS011;10536;51.582;5.016;2022-08-04T12:07:12;4.07;;;3.20;;
20751;SDS011;10536;51.582;5.016;2022-08-04T12:17:12;9.32;;;3.60;;
20751;SDS011;10536;51.582;5.016;2022-08-04T12:22:21;12.10;;;4.47;;
20751;SDS011;10536;51.582;5.016;2022-08-04T12:27:24;4.63;;;3.63;;
20751;SDS011;10536;51.582;5.016;2022-08-04T12:33:14;5.20;;;3.50;;
20751;SDS011;10536;51.582;5.016;2022-08-04T12:38:11;5.68;;;4.35;;
20751;SDS011;10536;51.582;5.016;2022-08-04T12:43:18;8.90;;;3.35;;
20751;SDS011;10536;51.582;5.016;2022-08-04T12:48:20;8.50;;;4.57;;
20751;SDS011;10536;51.582;5.016;2022-08-04T12:53:31;7.78;;;3.85;;
20751;SDS011;10536;51.582;5.016;2022-08-04T12:58:37;5.97;;;4.00;;
20751;SDS011;10536;51.582;5.016;2022-08-04T13:04:00;6.32;;;3.75;;
20751;SDS011;10536;51.582;5.016;2022-08-04T13:09:15;7.13;;;3.42;;
20751;SDS011;10536;51.582;5.016;2022-08-04T13:14:19;5.47;;;4.65;;
20751;SDS011;10536;51.582;5.016;2022-08-04T13:19:22;8.03;;;3.47;;
20751;SDS011;10536;51.582;5.016;2022-08-04T13:24:23;8.02;;;2.63;;
20751;SDS011;10536;51.582;5.016;2022-08-04T13:29:30;4.55;;;2.35;;
20751;SDS011;10536;51.582;5.016;2022-08-04T13:34:39;7.45;;;1.95;;
20751;SDS011;10536;51.582;5.016;2022-08-04T13:39:45;5.50;;;1.98;;
20751;SDS011;10536;51.582;5.016;2022-08-04T13:44:48;6.95;;;2.40;;
20751;SDS011;10536;51.582;5.016;2022-08-04T13:55:32;3.78;;;2.03;;
20751;SDS011;10536;51.582;5.016;2022-08-04T14:00:44;2.92;;;2.13;;
20751;SDS011;10536;51.582;5.016;2022-08-04T14:06:04;7.55;;;2.25;;
20751;SDS011;10536;51.582;5.016;2022-08-04T14:11:16;5.35;;;2.30;;
20751;SDS011;10536;51.582;5.016;2022-08-04T14:16:18;6.43;;;1.98;;
20751;SDS011;10536;51.582;5.016;2022-08-04T14:21:20;5.28;;;2.38;;
20751;SDS011;10536;51.582;5.016;2022-08-04T14:31:26;9.10;;;2.45;;
20751;SDS011;10536;51.582;5.016;2022-08-04T14:36:26;8.00;;;1.92;;
20751;SDS011;10536;51.582;5.016;2022-08-04T14:41:28;7.90;;;3.63;;
20751;SDS011;10536;51.582;5.016;2022-08-04T14:52:21;4.43;;;2.67;;
20751;SDS011;10536;51.582;5.016;2022-08-04T14:57:05;6.10;;;2.80;;
20751;SDS011;10536;51.582;5.016;2022-08-04T15:02:07;4.97;;;2.65;;
20751;SDS011;10536;51.582;5.016;2022-08-04T15:07:08;6.32;;;2.60;;
20751;SDS011;10536;51.582;5.016;2022-08-04T15:12:09;6.13;;;2.45;;
20751;SDS011;10536;51.582;5.016;2022-08-04T15:17:10;7.25;;;3.10;;
20751;SDS011;10536;51.582;5.016;2022-08-04T15:22:12;3.90;;;2.10;;
20751;SDS011;10536;51.582;5.016;2022-08-04T15:27:12;4.88;;;1.98;;
20751;SDS011;10536;51.582;5.016;2022-08-04T15:32:15;6.25;;;2.50;;
20751;SDS011;10536;51.582;5.016;2022-08-04T15:37:17;8.45;;;1.95;;
20751;SDS011;10536;51.582;5.016;2022-08-04T15:42:30;7.88;;;2.03;;
20751;SDS011;10536;51.582;5.016;2022-08-04T15:47:34;2.75;;;2.00;;
20751;SDS011;10536;51.582;5.016;2022-08-04T15:57:58;4.72;;;2.05;;
20751;SDS011;10536;51.582;5.016;2022-08-04T16:03:00;3.60;;;1.50;;
20751;SDS011;10536;51.582;5.016;2022-08-04T16:08:07;4.67;;;1.90;;
20751;SDS011;10536;51.582;5.016;2022-08-04T16:13:13;2.50;;;1.60;;
20751;SDS011;10536;51.582;5.016;2022-08-04T16:28:39;6.00;;;1.50;;
20751;SDS011;10536;51.582;5.016;2022-08-04T16:33:41;5.43;;;1.80;;
20751;SDS011;10536;51.582;5.016;2022-08-04T16:39:07;3.85;;;1.58;;
20751;SDS011;10536;51.582;5.016;2022-08-04T16:49:31;2.40;;;1.83;;
20751;SDS011;10536;51.582;5.016;2022-08-04T16:54:33;4.35;;;1.70;;
20751;SDS011;10536;51.582;5.016;2022-08-04T16:59:38;6.05;;;1.73;;
20751;SDS011;10536;51.582;5.016;2022-08-04T17:04:50;3.50;;;1.60;;
20751;SDS011;10536;51.582;5.016;2022-08-04T17:09:50;3.07;;;1.70;;
20751;SDS011;10536;51.582;5.016;2022-08-04T17:14:51;3.95;;;1.40;;
20751;SDS011;10536;51.582;5.016;2022-08-04T17:19:51;3.40;;;2.20;;
20751;SDS011;10536;51.582;5.016;2022-08-04T17:24:54;3.35;;;1.55;;
20751;SDS011;10536;51.582;5.016;2022-08-04T17:29:59;4.45;;;1.80;;
20751;SDS011;10536;51.582;5.016;2022-08-04T17:34:59;3.97;;;1.50;;
20751;SDS011;10536;51.582;5.016;2022-08-04T17:40:10;4.50;;;1.75;;
20751;SDS011;10536;51.582;5.016;2022-08-04T17:45:14;3.83;;;1.83;;
20751;SDS011;10536;51.582;5.016;2022-08-04T17:50:26;8.27;;;1.42;;
20751;SDS011;10536;51.582;5.016;2022-08-04T18:00:59;3.50;;;1.45;;
20751;SDS011;10536;51.582;5.016;2022-08-04T18:06:33;2.95;;;1.50;;
20751;SDS011;10536;51.582;5.016;2022-08-04T18:11:26;4.88;;;1.50;;
20751;SDS011;10536;51.582;5.016;2022-08-04T18:16:27;2.53;;;1.20;;
20751;SDS011;10536;51.582;5.016;2022-08-04T18:21:27;3.22;;;1.13;;
20751;SDS011;10536;51.582;5.016;2022-08-04T18:26:28;2.83;;;1.52;;
20751;SDS011;10536;51.582;5.016;2022-08-04T18:31:29;4.03;;;1.27;;
20751;SDS011;10536;51.582;5.016;2022-08-04T18:36:30;5.25;;;1.50;;
20751;SDS011;10536;51.582;5.016;2022-08-04T18:41:31;3.97;;;1.40;;
20751;SDS011;10536;51.582;5.016;2022-08-04T18:46:33;3.85;;;1.70;;
20751;SDS011;10536;51.582;5.016;2022-08-04T18:51:33;3.90;;;1.50;;
20751;SDS011;10536;51.582;5.016;2022-08-04T18:56:34;13.87;;;1.37;;
20751;SDS011;10536;51.582;5.016;2022-08-04T19:01:35;4.13;;;1.35;;
20751;SDS011;10536;51.582;5.016;2022-08-04T19:06:36;2.25;;;1.20;;
20751;SDS011;10536;51.582;5.016;2022-08-04T19:11:37;4.63;;;1.65;;
20751;SDS011;10536;51.582;5.016;2022-08-04T19:16:37;6.13;;;1.43;;
20751;SDS011;10536;51.582;5.016;2022-08-04T19:21:38;2.87;;;1.20;;
20751;SDS011;10536;51.582;5.016;2022-08-04T19:26:41;5.72;;;1.30;;
20751;SDS011;10536;51.582;5.016;2022-08-04T19:31:42;3.83;;;1.50;;
20751;SDS011;10536;51.582;5.016;2022-08-04T19:36:42;2.93;;;1.00;;
20751;SDS011;10536;51.582;5.016;2022-08-04T19:41:43;3.97;;;1.25;;
20751;SDS011;10536;51.582;5.016;2022-08-04T19:46:43;6.60;;;1.40;;
20751;SDS011;10536;51.582;5.016;2022-08-04T19:51:45;2.60;;;1.30;;
20751;SDS011;10536;51.582;5.016;2022-08-04T19:56:46;4.13;;;1.30;;
20751;SDS011;10536;51.582;5.016;2022-08-04T20:01:46;3.20;;;1.40;;
20751;SDS011;10536;51.582;5.016;2022-08-04T20:06:47;6.83;;;1.17;;
20751;SDS011;10536;51.582;5.016;2022-08-04T20:11:49;5.97;;;1.38;;
20751;SDS011;10536;51.582;5.016;2022-08-04T20:16:49;1.85;;;1.35;;
20751;SDS011;10536;51.582;5.016;2022-08-04T20:21:50;3.40;;;1.53;;
20751;SDS011;10536;51.582;5.016;2022-08-04T20:26:50;4.53;;;1.20;;
20751;SDS011;10536;51.582;5.016;2022-08-04T20:31:51;2.75;;;1.70;;
20751;SDS011;10536;51.582;5.016;2022-08-04T20:36:51;3.63;;;1.57;;
20751;SDS011;10536;51.582;5.016;2022-08-04T20:41:51;4.00;;;1.40;;
20751;SDS011;10536;51.582;5.016;2022-08-04T20:46:52;4.90;;;1.23;;
20751;SDS011;10536;51.582;5.016;2022-08-04T20:51:52;4.30;;;1.90;;
20751;SDS011;10536;51.582;5.016;2022-08-04T20:56:55;4.68;;;1.85;;
20751;SDS011;10536;51.582;5.016;2022-08-04T21:01:57;3.20;;;1.50;;
20751;SDS011;10536;51.582;5.016;2022-08-04T21:06:58;6.27;;;2.10;;
20751;SDS011;10536;51.582;5.016;2022-08-04T21:11:59;4.97;;;2.45;;
20751;SDS011;10536;51.582;5.016;2022-08-04T21:17:00;8.00;;;2.53;;
20751;SDS011;10536;51.582;5.016;2022-08-04T21:22:00;6.78;;;2.47;;
20751;SDS011;10536;51.582;5.016;2022-08-04T21:27:01;9.90;;;2.65;;
20751;SDS011;10536;51.582;5.016;2022-08-04T21:32:06;4.57;;;2.30;;
20751;SDS011;10536;51.582;5.016;2022-08-04T21:37:08;10.38;;;2.80;;
20751;SDS011;10536;51.582;5.016;2022-08-04T21:42:10;7.55;;;2.85;;
20751;SDS011;10536;51.582;5.016;2022-08-04T21:47:11;5.53;;;3.25;;
20751;SDS011;10536;51.582;5.016;2022-08-04T21:52:13;9.82;;;3.55;;
20751;SDS011;10536;51.582;5.016;2022-08-04T21:57:13;8.88;;;4.30;;
20751;SDS011;10536;51.582;5.016;2022-08-04T22:02:14;8.77;;;3.60;;
20751;SDS011;10536;51.582;5.016;2022-08-04T22:07:14;8.90;;;4.03;;
20751;SDS011;10536;51.582;5.016;2022-08-04T22:12:15;8.10;;;3.88;;
20751;SDS011;10536;51.582;5.016;2022-08-04T22:17:15;8.63;;;4.40;;
20751;SDS011;10536;51.582;5.016;2022-08-04T22:22:16;9.20;;;4.03;;
20751;SDS011;10536;51.582;5.016;2022-08-04T22:27:16;7.57;;;3.85;;
20751;SDS011;10536;51.582;5.016;2022-08-04T22:32:35;9.93;;;4.15;;
20751;SDS011;10536;51.582;5.016;2022-08-04T22:37:36;6.95;;;4.15;;
20751;SDS011;10536;51.582;5.016;2022-08-04T22:42:36;6.28;;;3.70;;
20751;SDS011;10536;51.582;5.016;2022-08-04T22:47:37;11.27;;;4.28;;
20751;SDS011;10536;51.582;5.016;2022-08-04T22:52:38;10.07;;;3.70;;
20751;SDS011;10536;51.582;5.016;2022-08-04T22:57:38;5.82;;;3.80;;
20751;SDS011;10536;51.582;5.016;2022-08-04T23:02:39;7.00;;;4.13;;
20751;SDS011;10536;51.582;5.016;2022-08-04T23:07:39;9.30;;;3.78;;
20751;SDS011;10536;51.582;5.016;2022-08-04T23:12:40;10.37;;;3.67;;
20751;SDS011;10536;51.582;5.016;2022-08-04T23:17:40;6.97;;;3.27;;
20751;SDS011;10536;51.582;5.016;2022-08-04T23:22:40;3.30;;;3.00;;
20751;SDS011;10536;51.582;5.016;2022-08-04T23:27:41;8.73;;;3.38;;
20751;SDS011;10536;51.582;5.016;2022-08-04T23:32:42;7.07;;;3.63;;
20751;SDS011;10536;51.582;5.016;2022-08-04T23:37:42;10.60;;;3.33;;
20751;SDS011;10536;51.582;5.016;2022-08-04T23:42:42;10.83;;;3.60;;
20751;SDS011;10536;51.582;5.016;2022-08-04T23:47:43;7.30;;;3.60;;
20751;SDS011;10536;51.582;5.016;2022-08-04T23:52:43;10.67;;;3.83;;
20751;SDS011;10536;51.582;5.016;2022-08-04T23:57:44;10.97;;;3.90;;
